sensor_id;sensor_type;location;lat;lon;timestamp;temperature;humidity
1415;DHT22;702;49.466;11.086;2023-04-03T00:00:52;3.40;68.70
1415;DHT22;702;49.466;11.086;2023-04-03T00:03:20;3.30;68.60
1415;DHT22;702;49.466;11.086;2023-04-03T00:05:47;3.40;68.80
1415;DHT22;702;49.466;11.086;2023-04-03T00:08:14;3.40;68.90
1415;DHT22;702;49.466;11.086;2023-04-03T00:10:42;3.40;68.80
1415;DHT22;702;49.466;11.086;2023-04-03T00:13:11;3.40;69.00
1415;DHT22;702;49.466;11.086;2023-04-03T00:15:39;3.30;68.90
1415;DHT22;702;49.466;11.086;2023-04-03T00:18:08;3.20;69.20
1415;DHT22;702;49.466;11.086;2023-04-03T00:20:35;3.20;69.20
1415;DHT22;702;49.466;11.086;2023-04-03T00:23:03;3.10;69.70
1415;DHT22;702;49.466;11.086;2023-04-03T00:25:30;3.10;70.10
1415;DHT22;702;49.466;11.086;2023-04-03T00:27:57;3.00;70.20
1415;DHT22;702;49.466;11.086;2023-04-03T00:30:26;3.10;70.10
1415;DHT22;702;49.466;11.086;2023-04-03T00:32:53;3.00;70.10
1415;DHT22;702;49.466;11.086;2023-04-03T00:35:22;3.10;70.10
1415;DHT22;702;49.466;11.086;2023-04-03T00:37:51;3.10;70.00
1415;DHT22;702;49.466;11.086;2023-04-03T00:40:20;3.10;70.00
1415;DHT22;702;49.466;11.086;2023-04-03T00:42:52;3.20;69.70
1415;DHT22;702;49.466;11.086;2023-04-03T00:45:31;3.10;69.90
1415;DHT22;702;49.466;11.086;2023-04-03T00:48:01;3.10;70.00
1415;DHT22;702;49.466;11.086;2023-04-03T00:50:33;3.00;70.30
1415;DHT22;702;49.466;11.086;2023-04-03T00:53:02;3.10;70.20
1415;DHT22;702;49.466;11.086;2023-04-03T00:55:30;3.10;70.00
1415;DHT22;702;49.466;11.086;2023-04-03T00:57:59;3.00;70.20
1415;DHT22;702;49.466;11.086;2023-04-03T01:00:29;3.00;70.00
1415;DHT22;702;49.466;11.086;2023-04-03T01:02:56;2.90;70.20
1415;DHT22;702;49.466;11.086;2023-04-03T01:05:23;3.00;70.20
1415;DHT22;702;49.466;11.086;2023-04-03T01:07:51;2.90;69.90
1415;DHT22;702;49.466;11.086;2023-04-03T01:10:20;2.90;69.80
1415;DHT22;702;49.466;11.086;2023-04-03T01:12:49;2.80;70.20
1415;DHT22;702;49.466;11.086;2023-04-03T01:15:19;2.80;70.10
1415;DHT22;702;49.466;11.086;2023-04-03T01:17:51;2.90;69.70
1415;DHT22;702;49.466;11.086;2023-04-03T01:24:09;2.80;69.90
1415;DHT22;702;49.466;11.086;2023-04-03T01:26:41;2.90;70.00
1415;DHT22;702;49.466;11.086;2023-04-03T01:29:09;3.00;69.90
1415;DHT22;702;49.466;11.086;2023-04-03T01:31:52;2.80;70.20
1415;DHT22;702;49.466;11.086;2023-04-03T01:34:20;2.70;70.10
1415;DHT22;702;49.466;11.086;2023-04-03T01:36:48;2.80;70.00
1415;DHT22;702;49.466;11.086;2023-04-03T01:39:18;2.70;69.90
1415;DHT22;702;49.466;11.086;2023-04-03T01:41:45;2.70;69.90
1415;DHT22;702;49.466;11.086;2023-04-03T01:44:13;2.50;70.00
1415;DHT22;702;49.466;11.086;2023-04-03T01:46:40;2.50;70.00
1415;DHT22;702;49.466;11.086;2023-04-03T01:49:09;2.50;69.80
1415;DHT22;702;49.466;11.086;2023-04-03T01:51:37;2.50;70.00
1415;DHT22;702;49.466;11.086;2023-04-03T01:54:04;2.40;70.00
1415;DHT22;702;49.466;11.086;2023-04-03T01:56:31;2.30;70.00
1415;DHT22;702;49.466;11.086;2023-04-03T01:58:58;2.20;70.40
1415;DHT22;702;49.466;11.086;2023-04-03T02:01:25;2.10;70.50
1415;DHT22;702;49.466;11.086;2023-04-03T02:03:52;2.10;70.90
1415;DHT22;702;49.466;11.086;2023-04-03T02:06:21;2.10;70.80
1415;DHT22;702;49.466;11.086;2023-04-03T02:08:49;2.10;71.10
1415;DHT22;702;49.466;11.086;2023-04-03T02:11:16;2.00;71.20
1415;DHT22;702;49.466;11.086;2023-04-03T02:13:43;1.90;71.50
1415;DHT22;702;49.466;11.086;2023-04-03T02:16:10;2.00;71.50
1415;DHT22;702;49.466;11.086;2023-04-03T02:18:39;1.90;71.50
1415;DHT22;702;49.466;11.086;2023-04-03T02:21:06;1.80;71.60
1415;DHT22;702;49.466;11.086;2023-04-03T02:23:35;1.70;72.20
1415;DHT22;702;49.466;11.086;2023-04-03T02:26:06;1.70;72.40
1415;DHT22;702;49.466;11.086;2023-04-03T02:28:34;1.60;72.90
1415;DHT22;702;49.466;11.086;2023-04-03T02:31:02;1.70;73.00
1415;DHT22;702;49.466;11.086;2023-04-03T02:33:30;1.60;73.10
1415;DHT22;702;49.466;11.086;2023-04-03T02:35:58;1.60;73.40
1415;DHT22;702;49.466;11.086;2023-04-03T02:38:25;1.80;73.20
1415;DHT22;702;49.466;11.086;2023-04-03T02:40:59;1.80;73.10
1415;DHT22;702;49.466;11.086;2023-04-03T02:43:27;1.80;73.20
1415;DHT22;702;49.466;11.086;2023-04-03T02:45:54;1.70;73.40
1415;DHT22;702;49.466;11.086;2023-04-03T02:48:22;1.70;73.40
1415;DHT22;702;49.466;11.086;2023-04-03T02:50:49;1.60;73.60
1415;DHT22;702;49.466;11.086;2023-04-03T02:53:17;1.60;73.90
1415;DHT22;702;49.466;11.086;2023-04-03T02:55:44;1.60;74.00
1415;DHT22;702;49.466;11.086;2023-04-03T02:58:15;1.50;74.30
1415;DHT22;702;49.466;11.086;2023-04-03T03:00:42;1.40;74.40
1415;DHT22;702;49.466;11.086;2023-04-03T03:03:10;1.40;74.70
1415;DHT22;702;49.466;11.086;2023-04-03T03:05:39;1.20;75.30
1415;DHT22;702;49.466;11.086;2023-04-03T03:08:06;1.10;76.00
1415;DHT22;702;49.466;11.086;2023-04-03T03:10:34;1.20;76.70
1415;DHT22;702;49.466;11.086;2023-04-03T03:13:01;1.20;76.80
1415;DHT22;702;49.466;11.086;2023-04-03T03:15:29;1.30;76.90
1415;DHT22;702;49.466;11.086;2023-04-03T03:17:57;1.30;77.00
1415;DHT22;702;49.466;11.086;2023-04-03T03:20:24;1.20;77.00
1415;DHT22;702;49.466;11.086;2023-04-03T03:22:51;1.30;77.60
1415;DHT22;702;49.466;11.086;2023-04-03T03:25:20;1.20;77.50
1415;DHT22;702;49.466;11.086;2023-04-03T03:27:48;1.30;78.30
1415;DHT22;702;49.466;11.086;2023-04-03T03:30:15;1.30;77.80
1415;DHT22;702;49.466;11.086;2023-04-03T03:32:44;1.20;78.40
1415;DHT22;702;49.466;11.086;2023-04-03T03:35:12;1.10;79.20
1415;DHT22;702;49.466;11.086;2023-04-03T03:37:40;1.20;80.30
1415;DHT22;702;49.466;11.086;2023-04-03T03:40:08;1.40;79.60
1415;DHT22;702;49.466;11.086;2023-04-03T03:42:38;1.50;79.20
1415;DHT22;702;49.466;11.086;2023-04-03T03:45:07;1.60;79.30
1415;DHT22;702;49.466;11.086;2023-04-03T03:47:34;1.60;79.20
1415;DHT22;702;49.466;11.086;2023-04-03T03:50:04;1.50;79.70
1415;DHT22;702;49.466;11.086;2023-04-03T03:52:32;1.60;79.70
1415;DHT22;702;49.466;11.086;2023-04-03T03:54:59;1.60;79.80
1415;DHT22;702;49.466;11.086;2023-04-03T03:57:27;1.70;80.20
1415;DHT22;702;49.466;11.086;2023-04-03T03:59:54;1.80;79.60
1415;DHT22;702;49.466;11.086;2023-04-03T04:02:22;1.90;79.10
1415;DHT22;702;49.466;11.086;2023-04-03T04:04:53;1.90;79.60
1415;DHT22;702;49.466;11.086;2023-04-03T04:07:21;1.90;79.50
1415;DHT22;702;49.466;11.086;2023-04-03T04:09:49;1.80;79.90
1415;DHT22;702;49.466;11.086;2023-04-03T04:12:16;1.80;80.10
1415;DHT22;702;49.466;11.086;2023-04-03T04:14:43;1.80;80.90
1415;DHT22;702;49.466;11.086;2023-04-03T04:17:12;1.90;80.60
1415;DHT22;702;49.466;11.086;2023-04-03T04:19:39;1.90;80.60
1415;DHT22;702;49.466;11.086;2023-04-03T04:22:06;1.90;80.70
1415;DHT22;702;49.466;11.086;2023-04-03T04:24:36;1.80;81.10
1415;DHT22;702;49.466;11.086;2023-04-03T04:27:03;1.80;81.20
1415;DHT22;702;49.466;11.086;2023-04-03T04:29:30;1.80;81.60
1415;DHT22;702;49.466;11.086;2023-04-03T04:32:01;1.90;81.80
1415;DHT22;702;49.466;11.086;2023-04-03T04:34:28;1.90;81.70
1415;DHT22;702;49.466;11.086;2023-04-03T04:36:56;1.80;81.70
1415;DHT22;702;49.466;11.086;2023-04-03T04:39:23;1.80;81.70
1415;DHT22;702;49.466;11.086;2023-04-03T04:41:52;1.70;82.00
1415;DHT22;702;49.466;11.086;2023-04-03T04:44:19;1.70;82.70
1415;DHT22;702;49.466;11.086;2023-04-03T04:46:47;1.60;83.10
1415;DHT22;702;49.466;11.086;2023-04-03T04:49:14;1.60;83.20
1415;DHT22;702;49.466;11.086;2023-04-03T04:51:41;1.60;83.50
1415;DHT22;702;49.466;11.086;2023-04-03T04:54:08;1.50;84.50
1415;DHT22;702;49.466;11.086;2023-04-03T04:56:35;1.50;84.80
1415;DHT22;702;49.466;11.086;2023-04-03T04:59:04;1.40;84.50
1415;DHT22;702;49.466;11.086;2023-04-03T05:01:31;1.40;85.70
1415;DHT22;702;49.466;11.086;2023-04-03T05:03:59;1.40;86.00
1415;DHT22;702;49.466;11.086;2023-04-03T05:06:26;1.40;85.70
1415;DHT22;702;49.466;11.086;2023-04-03T05:08:53;1.40;85.70
1415;DHT22;702;49.466;11.086;2023-04-03T05:11:20;1.50;85.50
1415;DHT22;702;49.466;11.086;2023-04-03T05:13:47;1.60;85.50
1415;DHT22;702;49.466;11.086;2023-04-03T05:16:16;1.60;85.00
1415;DHT22;702;49.466;11.086;2023-04-03T05:18:43;1.60;85.00
1415;DHT22;702;49.466;11.086;2023-04-03T05:21:10;1.60;85.40
1415;DHT22;702;49.466;11.086;2023-04-03T05:23:38;1.70;84.90
1415;DHT22;702;49.466;11.086;2023-04-03T05:26:05;1.70;84.40
1415;DHT22;702;49.466;11.086;2023-04-03T05:28:32;1.80;83.80
1415;DHT22;702;49.466;11.086;2023-04-03T05:31:02;1.90;82.90
1415;DHT22;702;49.466;11.086;2023-04-03T05:33:33;1.90;82.90
1415;DHT22;702;49.466;11.086;2023-04-03T05:36:03;2.00;83.10
1415;DHT22;702;49.466;11.086;2023-04-03T05:38:31;2.00;82.20
1415;DHT22;702;49.466;11.086;2023-04-03T05:40:59;2.00;82.00
1415;DHT22;702;49.466;11.086;2023-04-03T05:43:26;2.10;81.90
1415;DHT22;702;49.466;11.086;2023-04-03T05:45:53;2.20;81.80
1415;DHT22;702;49.466;11.086;2023-04-03T05:48:20;2.10;81.20
1415;DHT22;702;49.466;11.086;2023-04-03T05:50:49;2.30;80.70
1415;DHT22;702;49.466;11.086;2023-04-03T05:53:20;2.40;80.20
1415;DHT22;702;49.466;11.086;2023-04-03T05:55:48;2.50;80.20
1415;DHT22;702;49.466;11.086;2023-04-03T05:58:17;2.50;79.50
1415;DHT22;702;49.466;11.086;2023-04-03T06:00:44;2.70;79.10
1415;DHT22;702;49.466;11.086;2023-04-03T06:03:11;2.70;78.80
1415;DHT22;702;49.466;11.086;2023-04-03T06:05:39;2.80;78.50
1415;DHT22;702;49.466;11.086;2023-04-03T06:08:11;2.90;78.10
1415;DHT22;702;49.466;11.086;2023-04-03T06:10:38;3.00;77.90
1415;DHT22;702;49.466;11.086;2023-04-03T06:13:05;3.10;77.10
1415;DHT22;702;49.466;11.086;2023-04-03T06:15:33;3.20;77.10
1415;DHT22;702;49.466;11.086;2023-04-03T06:18:01;3.30;76.90
1415;DHT22;702;49.466;11.086;2023-04-03T06:20:28;3.30;76.50
1415;DHT22;702;49.466;11.086;2023-04-03T06:22:55;3.30;76.20
1415;DHT22;702;49.466;11.086;2023-04-03T06:25:23;3.40;76.40
1415;DHT22;702;49.466;11.086;2023-04-03T06:27:51;3.50;76.30
1415;DHT22;702;49.466;11.086;2023-04-03T06:30:18;3.60;75.70
1415;DHT22;702;49.466;11.086;2023-04-03T06:32:45;3.50;75.70
1415;DHT22;702;49.466;11.086;2023-04-03T06:35:12;3.60;75.50
1415;DHT22;702;49.466;11.086;2023-04-03T06:37:40;3.60;75.50
1415;DHT22;702;49.466;11.086;2023-04-03T06:40:17;3.60;75.00
1415;DHT22;702;49.466;11.086;2023-04-03T06:42:47;3.50;75.00
1415;DHT22;702;49.466;11.086;2023-04-03T06:45:14;3.50;74.90
1415;DHT22;702;49.466;11.086;2023-04-03T06:47:42;3.40;74.70
1415;DHT22;702;49.466;11.086;2023-04-03T06:50:10;3.40;74.70
1415;DHT22;702;49.466;11.086;2023-04-03T06:52:39;3.50;74.80
1415;DHT22;702;49.466;11.086;2023-04-03T06:55:08;3.60;74.50
1415;DHT22;702;49.466;11.086;2023-04-03T06:57:36;3.60;74.10
1415;DHT22;702;49.466;11.086;2023-04-03T07:00:06;3.70;74.40
1415;DHT22;702;49.466;11.086;2023-04-03T07:02:34;3.70;73.80
1415;DHT22;702;49.466;11.086;2023-04-03T07:05:02;3.80;73.80
1415;DHT22;702;49.466;11.086;2023-04-03T07:07:29;4.00;73.60
1415;DHT22;702;49.466;11.086;2023-04-03T07:09:57;4.20;73.10
1415;DHT22;702;49.466;11.086;2023-04-03T07:12:24;4.20;72.60
1415;DHT22;702;49.466;11.086;2023-04-03T07:14:52;4.20;72.80
1415;DHT22;702;49.466;11.086;2023-04-03T07:17:20;4.40;72.30
1415;DHT22;702;49.466;11.086;2023-04-03T07:19:48;4.30;71.60
1415;DHT22;702;49.466;11.086;2023-04-03T07:22:16;4.30;71.70
1415;DHT22;702;49.466;11.086;2023-04-03T07:24:45;4.30;71.40
1415;DHT22;702;49.466;11.086;2023-04-03T07:27:12;4.40;71.10
1415;DHT22;702;49.466;11.086;2023-04-03T07:29:40;4.40;71.20
1415;DHT22;702;49.466;11.086;2023-04-03T07:32:07;4.40;70.50
1415;DHT22;702;49.466;11.086;2023-04-03T07:34:36;4.50;70.70
1415;DHT22;702;49.466;11.086;2023-04-03T07:37:03;4.50;70.40
1415;DHT22;702;49.466;11.086;2023-04-03T07:39:32;4.50;69.60
1415;DHT22;702;49.466;11.086;2023-04-03T07:41:59;4.60;69.30
1415;DHT22;702;49.466;11.086;2023-04-03T07:44:27;4.50;69.40
1415;DHT22;702;49.466;11.086;2023-04-03T07:46:55;4.50;69.20
1415;DHT22;702;49.466;11.086;2023-04-03T07:49:22;4.60;69.00
1415;DHT22;702;49.466;11.086;2023-04-03T07:51:52;4.60;68.80
1415;DHT22;702;49.466;11.086;2023-04-03T07:54:19;4.80;68.60
1415;DHT22;702;49.466;11.086;2023-04-03T07:56:47;4.90;67.80
1415;DHT22;702;49.466;11.086;2023-04-03T07:59:15;4.90;66.90
1415;DHT22;702;49.466;11.086;2023-04-03T08:01:42;4.80;67.60
1415;DHT22;702;49.466;11.086;2023-04-03T08:04:09;5.10;67.80
1415;DHT22;702;49.466;11.086;2023-04-03T08:06:36;5.20;66.80
1415;DHT22;702;49.466;11.086;2023-04-03T08:09:05;5.20;66.80
1415;DHT22;702;49.466;11.086;2023-04-03T08:11:32;5.30;66.80
1415;DHT22;702;49.466;11.086;2023-04-03T08:13:59;5.40;66.30
1415;DHT22;702;49.466;11.086;2023-04-03T08:16:28;5.30;66.10
1415;DHT22;702;49.466;11.086;2023-04-03T08:18:55;5.40;65.70
1415;DHT22;702;49.466;11.086;2023-04-03T08:21:24;5.50;65.70
1415;DHT22;702;49.466;11.086;2023-04-03T08:23:53;5.50;64.30
1415;DHT22;702;49.466;11.086;2023-04-03T08:26:23;5.50;63.60
1415;DHT22;702;49.466;11.086;2023-04-03T08:28:52;5.50;63.60
1415;DHT22;702;49.466;11.086;2023-04-03T08:31:19;5.60;64.60
1415;DHT22;702;49.466;11.086;2023-04-03T08:33:47;5.80;63.70
1415;DHT22;702;49.466;11.086;2023-04-03T08:36:20;5.70;61.30
1415;DHT22;702;49.466;11.086;2023-04-03T08:38:49;5.70;61.60
1415;DHT22;702;49.466;11.086;2023-04-03T08:41:24;5.50;61.30
1415;DHT22;702;49.466;11.086;2023-04-03T08:44:10;5.50;61.80
1415;DHT22;702;49.466;11.086;2023-04-03T08:46:54;5.60;61.60
1415;DHT22;702;49.466;11.086;2023-04-03T08:49:31;5.80;61.20
1415;DHT22;702;49.466;11.086;2023-04-03T08:52:04;5.80;59.00
1415;DHT22;702;49.466;11.086;2023-04-03T08:54:34;5.70;56.70
1415;DHT22;702;49.466;11.086;2023-04-03T08:57:05;5.80;56.70
1415;DHT22;702;49.466;11.086;2023-04-03T08:59:35;5.80;54.00
1415;DHT22;702;49.466;11.086;2023-04-03T09:02:24;5.70;53.10
1415;DHT22;702;49.466;11.086;2023-04-03T09:04:53;5.80;53.50
1415;DHT22;702;49.466;11.086;2023-04-03T09:07:25;5.70;54.00
1415;DHT22;702;49.466;11.086;2023-04-03T09:10:00;5.70;54.40
1415;DHT22;702;49.466;11.086;2023-04-03T09:12:34;5.60;54.30
1415;DHT22;702;49.466;11.086;2023-04-03T09:15:13;5.40;55.20
1415;DHT22;702;49.466;11.086;2023-04-03T09:17:53;5.40;55.60
1415;DHT22;702;49.466;11.086;2023-04-03T09:20:36;5.50;55.00
1415;DHT22;702;49.466;11.086;2023-04-03T09:23:21;5.70;54.70
1415;DHT22;702;49.466;11.086;2023-04-03T09:25:54;5.80;54.50
1415;DHT22;702;49.466;11.086;2023-04-03T09:28:26;5.60;54.70
1415;DHT22;702;49.466;11.086;2023-04-03T09:30:55;5.60;53.80
1415;DHT22;702;49.466;11.086;2023-04-03T09:33:22;5.70;53.60
1415;DHT22;702;49.466;11.086;2023-04-03T09:35:51;5.70;52.70
1415;DHT22;702;49.466;11.086;2023-04-03T09:38:20;5.80;53.10
1415;DHT22;702;49.466;11.086;2023-04-03T09:40:49;5.90;52.60
1415;DHT22;702;49.466;11.086;2023-04-03T09:43:31;6.00;51.40
1415;DHT22;702;49.466;11.086;2023-04-03T09:46:18;6.00;51.60
1415;DHT22;702;49.466;11.086;2023-04-03T09:48:55;5.90;50.50
1415;DHT22;702;49.466;11.086;2023-04-03T09:51:26;5.80;50.80
1415;DHT22;702;49.466;11.086;2023-04-03T09:53:54;5.60;51.10
1415;DHT22;702;49.466;11.086;2023-04-03T09:56:24;5.50;50.70
1415;DHT22;702;49.466;11.086;2023-04-03T09:59:08;5.70;51.60
1415;DHT22;702;49.466;11.086;2023-04-03T10:01:58;6.00;50.10
1415;DHT22;702;49.466;11.086;2023-04-03T10:04:37;6.30;49.40
1415;DHT22;702;49.466;11.086;2023-04-03T10:07:31;6.50;48.00
1415;DHT22;702;49.466;11.086;2023-04-03T10:10:01;6.70;48.20
1415;DHT22;702;49.466;11.086;2023-04-03T10:12:30;6.40;48.30
1415;DHT22;702;49.466;11.086;2023-04-03T10:15:00;6.20;48.30
1415;DHT22;702;49.466;11.086;2023-04-03T10:17:37;6.10;48.80
1415;DHT22;702;49.466;11.086;2023-04-03T10:20:27;6.30;48.60
1415;DHT22;702;49.466;11.086;2023-04-03T10:23:09;6.40;47.40
1415;DHT22;702;49.466;11.086;2023-04-03T10:25:50;6.50;47.40
1415;DHT22;702;49.466;11.086;2023-04-03T10:28:28;6.80;46.80
1415;DHT22;702;49.466;11.086;2023-04-03T10:31:03;6.90;46.60
1415;DHT22;702;49.466;11.086;2023-04-03T10:33:48;6.90;46.30
1415;DHT22;702;49.466;11.086;2023-04-03T10:36:28;6.70;46.80
1415;DHT22;702;49.466;11.086;2023-04-03T10:39:08;6.70;47.30
1415;DHT22;702;49.466;11.086;2023-04-03T10:41:50;6.60;45.70
1415;DHT22;702;49.466;11.086;2023-04-03T10:44:30;6.50;45.20
1415;DHT22;702;49.466;11.086;2023-04-03T10:47:08;6.70;45.20
1415;DHT22;702;49.466;11.086;2023-04-03T10:49:45;7.10;45.00
1415;DHT22;702;49.466;11.086;2023-04-03T10:52:22;7.10;44.30
1415;DHT22;702;49.466;11.086;2023-04-03T10:54:59;7.20;43.80
1415;DHT22;702;49.466;11.086;2023-04-03T10:57:31;7.30;44.10
1415;DHT22;702;49.466;11.086;2023-04-03T11:00:02;7.50;44.30
1415;DHT22;702;49.466;11.086;2023-04-03T11:02:36;7.50;44.50
1415;DHT22;702;49.466;11.086;2023-04-03T11:05:07;7.10;43.90
1415;DHT22;702;49.466;11.086;2023-04-03T11:07:45;6.90;44.20
1415;DHT22;702;49.466;11.086;2023-04-03T11:10:23;6.80;44.30
1415;DHT22;702;49.466;11.086;2023-04-03T11:12:58;6.90;44.60
1415;DHT22;702;49.466;11.086;2023-04-03T11:15:30;7.00;43.10
1415;DHT22;702;49.466;11.086;2023-04-03T11:18:03;7.00;42.60
1415;DHT22;702;49.466;11.086;2023-04-03T11:20:34;7.10;42.70
1415;DHT22;702;49.466;11.086;2023-04-03T11:23:05;6.90;42.30
1415;DHT22;702;49.466;11.086;2023-04-03T11:25:36;6.70;42.80
1415;DHT22;702;49.466;11.086;2023-04-03T11:28:06;6.50;42.30
1415;DHT22;702;49.466;11.086;2023-04-03T11:30:42;6.40;42.50
1415;DHT22;702;49.466;11.086;2023-04-03T11:33:24;6.50;42.50
1415;DHT22;702;49.466;11.086;2023-04-03T11:35:59;6.60;42.40
1415;DHT22;702;49.466;11.086;2023-04-03T11:38:31;6.70;43.20
1415;DHT22;702;49.466;11.086;2023-04-03T11:41:03;7.00;40.90
1415;DHT22;702;49.466;11.086;2023-04-03T11:43:32;7.20;40.30
1415;DHT22;702;49.466;11.086;2023-04-03T11:46:01;7.60;40.80
1415;DHT22;702;49.466;11.086;2023-04-03T11:48:47;7.90;42.10
1415;DHT22;702;49.466;11.086;2023-04-03T11:51:40;7.80;42.70
1415;DHT22;702;49.466;11.086;2023-04-03T11:54:43;7.50;41.80
1415;DHT22;702;49.466;11.086;2023-04-03T12:00:58;7.00;41.80
1415;DHT22;702;49.466;11.086;2023-04-03T12:09:57;7.90;41.80
1415;DHT22;702;49.466;11.086;2023-04-03T12:12:33;8.50;41.60
1415;DHT22;702;49.466;11.086;2023-04-03T12:18:58;8.30;42.40
1415;DHT22;702;49.466;11.086;2023-04-03T12:24:38;7.50;42.30
1415;DHT22;702;49.466;11.086;2023-04-03T12:27:27;7.20;42.40
1415;DHT22;702;49.466;11.086;2023-04-03T12:30:03;7.50;43.40
1415;DHT22;702;49.466;11.086;2023-04-03T12:35:30;8.00;43.10
1415;DHT22;702;49.466;11.086;2023-04-03T12:38:33;8.10;42.70
1415;DHT22;702;49.466;11.086;2023-04-03T12:41:25;7.90;42.40
1415;DHT22;702;49.466;11.086;2023-04-03T12:44:05;7.90;42.00
1415;DHT22;702;49.466;11.086;2023-04-03T12:46:44;7.70;42.40
1415;DHT22;702;49.466;11.086;2023-04-03T12:49:22;7.60;41.60
1415;DHT22;702;49.466;11.086;2023-04-03T12:51:58;7.60;41.70
1415;DHT22;702;49.466;11.086;2023-04-03T12:54:30;7.60;41.60
1415;DHT22;702;49.466;11.086;2023-04-03T12:57:10;7.60;41.60
1415;DHT22;702;49.466;11.086;2023-04-03T12:59:38;7.80;40.90
1415;DHT22;702;49.466;11.086;2023-04-03T13:02:23;7.90;40.50
1415;DHT22;702;49.466;11.086;2023-04-03T13:04:53;7.80;41.00
1415;DHT22;702;49.466;11.086;2023-04-03T13:07:28;7.70;41.30
1415;DHT22;702;49.466;11.086;2023-04-03T13:10:02;7.50;41.50
1415;DHT22;702;49.466;11.086;2023-04-03T13:12:31;7.40;42.10
1415;DHT22;702;49.466;11.086;2023-04-03T13:15:01;7.40;42.80
1415;DHT22;702;49.466;11.086;2023-04-03T13:17:30;7.30;43.10
1415;DHT22;702;49.466;11.086;2023-04-03T13:20:12;7.50;43.30
1415;DHT22;702;49.466;11.086;2023-04-03T13:22:49;7.60;42.60
1415;DHT22;702;49.466;11.086;2023-04-03T13:25:20;7.60;42.50
1415;DHT22;702;49.466;11.086;2023-04-03T13:27:49;7.70;42.00
1415;DHT22;702;49.466;11.086;2023-04-03T13:30:25;7.90;41.40
1415;DHT22;702;49.466;11.086;2023-04-03T13:32:56;8.30;42.00
1415;DHT22;702;49.466;11.086;2023-04-03T13:35:35;8.70;41.40
1415;DHT22;702;49.466;11.086;2023-04-03T13:38:21;8.60;40.90
1415;DHT22;702;49.466;11.086;2023-04-03T13:40:52;8.50;40.90
1415;DHT22;702;49.466;11.086;2023-04-03T13:43:23;8.30;41.60
1415;DHT22;702;49.466;11.086;2023-04-03T13:45:57;8.20;41.50
1415;DHT22;702;49.466;11.086;2023-04-03T13:48:27;8.00;41.90
1415;DHT22;702;49.466;11.086;2023-04-03T13:51:04;7.60;41.70
1415;DHT22;702;49.466;11.086;2023-04-03T13:53:40;7.50;42.00
1415;DHT22;702;49.466;11.086;2023-04-03T13:56:17;7.60;41.90
1415;DHT22;702;49.466;11.086;2023-04-03T13:59:00;7.60;41.80
1415;DHT22;702;49.466;11.086;2023-04-03T14:01:50;7.70;42.00
1415;DHT22;702;49.466;11.086;2023-04-03T14:04:21;8.10;42.50
1415;DHT22;702;49.466;11.086;2023-04-03T14:06:50;8.10;42.70
1415;DHT22;702;49.466;11.086;2023-04-03T14:09:20;8.10;42.10
1415;DHT22;702;49.466;11.086;2023-04-03T14:11:54;7.60;41.40
1415;DHT22;702;49.466;11.086;2023-04-03T14:14:34;7.20;41.10
1415;DHT22;702;49.466;11.086;2023-04-03T14:17:14;7.10;41.20
1415;DHT22;702;49.466;11.086;2023-04-03T14:19:43;7.20;41.60
1415;DHT22;702;49.466;11.086;2023-04-03T14:22:15;7.10;41.50
1415;DHT22;702;49.466;11.086;2023-04-03T14:24:46;7.30;42.10
1415;DHT22;702;49.466;11.086;2023-04-03T14:27:17;7.40;41.80
1415;DHT22;702;49.466;11.086;2023-04-03T14:29:47;7.50;41.50
1415;DHT22;702;49.466;11.086;2023-04-03T14:32:17;7.70;42.20
1415;DHT22;702;49.466;11.086;2023-04-03T14:34:46;8.10;42.50
1415;DHT22;702;49.466;11.086;2023-04-03T14:37:16;8.10;41.10
1415;DHT22;702;49.466;11.086;2023-04-03T14:39:47;7.60;41.10
1415;DHT22;702;49.466;11.086;2023-04-03T14:42:20;7.50;41.40
1415;DHT22;702;49.466;11.086;2023-04-03T14:44:49;7.40;41.40
1415;DHT22;702;49.466;11.086;2023-04-03T14:47:21;7.30;41.50
1415;DHT22;702;49.466;11.086;2023-04-03T14:49:51;7.30;41.90
1415;DHT22;702;49.466;11.086;2023-04-03T14:52:20;7.10;41.80
1415;DHT22;702;49.466;11.086;2023-04-03T14:54:51;7.10;41.70
1415;DHT22;702;49.466;11.086;2023-04-03T14:57:22;7.20;41.60
1415;DHT22;702;49.466;11.086;2023-04-03T14:59:52;7.40;41.30
1415;DHT22;702;49.466;11.086;2023-04-03T15:02:29;7.60;41.00
1415;DHT22;702;49.466;11.086;2023-04-03T15:04:58;7.70;40.90
1415;DHT22;702;49.466;11.086;2023-04-03T15:07:30;7.70;41.30
1415;DHT22;702;49.466;11.086;2023-04-03T15:10:02;7.50;40.90
1415;DHT22;702;49.466;11.086;2023-04-03T15:12:36;7.20;41.00
1415;DHT22;702;49.466;11.086;2023-04-03T15:15:05;6.90;40.60
1415;DHT22;702;49.466;11.086;2023-04-03T15:17:35;6.70;40.70
1415;DHT22;702;49.466;11.086;2023-04-03T15:20:05;6.50;40.90
1415;DHT22;702;49.466;11.086;2023-04-03T15:22:43;6.40;40.90
1415;DHT22;702;49.466;11.086;2023-04-03T15:25:12;6.30;41.10
1415;DHT22;702;49.466;11.086;2023-04-03T15:27:41;6.50;41.40
1415;DHT22;702;49.466;11.086;2023-04-03T15:30:14;6.70;41.50
1415;DHT22;702;49.466;11.086;2023-04-03T15:32:42;6.90;41.80
1415;DHT22;702;49.466;11.086;2023-04-03T15:35:10;7.20;41.70
1415;DHT22;702;49.466;11.086;2023-04-03T15:37:37;7.30;41.50
1415;DHT22;702;49.466;11.086;2023-04-03T15:40:06;7.30;41.10
1415;DHT22;702;49.466;11.086;2023-04-03T15:42:35;7.10;40.80
1415;DHT22;702;49.466;11.086;2023-04-03T15:45:02;6.90;40.70
1415;DHT22;702;49.466;11.086;2023-04-03T15:47:30;6.50;40.70
1415;DHT22;702;49.466;11.086;2023-04-03T15:49:58;6.30;41.10
1415;DHT22;702;49.466;11.086;2023-04-03T15:52:25;6.20;41.30
1415;DHT22;702;49.466;11.086;2023-04-03T15:54:53;6.10;41.30
1415;DHT22;702;49.466;11.086;2023-04-03T15:57:20;6.00;41.60
1415;DHT22;702;49.466;11.086;2023-04-03T15:59:53;5.90;41.20
1415;DHT22;702;49.466;11.086;2023-04-03T16:02:20;5.90;41.70
1415;DHT22;702;49.466;11.086;2023-04-03T16:04:47;6.00;41.90
1415;DHT22;702;49.466;11.086;2023-04-03T16:07:15;5.90;41.60
1415;DHT22;702;49.466;11.086;2023-04-03T16:09:42;5.90;41.80
1415;DHT22;702;49.466;11.086;2023-04-03T16:12:10;5.90;41.50
1415;DHT22;702;49.466;11.086;2023-04-03T16:14:37;5.90;41.80
1415;DHT22;702;49.466;11.086;2023-04-03T16:17:05;6.00;42.10
1415;DHT22;702;49.466;11.086;2023-04-03T16:19:33;6.00;42.00
1415;DHT22;702;49.466;11.086;2023-04-03T16:22:00;5.80;41.60
1415;DHT22;702;49.466;11.086;2023-04-03T16:24:29;5.80;41.80
1415;DHT22;702;49.466;11.086;2023-04-03T16:26:57;5.80;41.90
1415;DHT22;702;49.466;11.086;2023-04-03T16:29:25;5.80;41.90
1415;DHT22;702;49.466;11.086;2023-04-03T16:31:52;5.80;41.70
1415;DHT22;702;49.466;11.086;2023-04-03T16:34:20;5.70;41.60
1415;DHT22;702;49.466;11.086;2023-04-03T16:36:48;5.70;41.80
1415;DHT22;702;49.466;11.086;2023-04-03T16:39:18;5.70;42.10
1415;DHT22;702;49.466;11.086;2023-04-03T16:41:45;5.80;42.00
1415;DHT22;702;49.466;11.086;2023-04-03T16:44:12;5.60;41.90
1415;DHT22;702;49.466;11.086;2023-04-03T16:46:39;5.50;42.00
1415;DHT22;702;49.466;11.086;2023-04-03T16:49:06;5.30;42.10
1415;DHT22;702;49.466;11.086;2023-04-03T16:51:35;5.30;42.20
1415;DHT22;702;49.466;11.086;2023-04-03T16:54:03;5.20;42.10
1415;DHT22;702;49.466;11.086;2023-04-03T16:56:30;5.20;42.20
1415;DHT22;702;49.466;11.086;2023-04-03T16:58:57;5.20;42.40
1415;DHT22;702;49.466;11.086;2023-04-03T17:01:24;5.20;42.50
1415;DHT22;702;49.466;11.086;2023-04-03T17:03:52;5.30;42.20